Time;durP1;ratioP1;P1;durP2;ratioP2;P2;SDS_P1;SDS_P2;PMS_P1;PMS_P2;Temp;Humidity;BMP_temperature;BMP_pressure;BME280_temperature;BME280_humidity;BME280_pressure;Samples;Min_cycle;Max_cycle;Signal;HPM_P1;HPM_P2
2023/08/19 00:01:30;;;;;;;22.23;19.85;;;21.60;99.90;;;;;;5071253;28;20033;-71
2023/08/19 00:03:56;;;;;;;24.38;20.27;;;21.10;99.90;;;;;;5070138;28;20037;-71
2023/08/19 00:06:35;;;;;;;23.60;19.85;;;21.90;99.90;;;;;;5071477;28;20678;-71
2023/08/19 00:09:03;;;;;;;26.42;21.23;;;22.00;99.90;;;;;;5066519;28;20048;-71
2023/08/19 00:11:30;;;;;;;23.20;20.52;;;21.40;99.90;;;;;;5071325;28;20041;-71
2023/08/19 00:13:56;;;;;;;29.45;21.35;;;21.90;99.90;;;;;;5071655;28;20167;-71
2023/08/19 00:16:21;;;;;;;22.63;19.50;;;21.30;99.90;;;;;;5071375;28;20555;-71
2023/08/19 00:18:47;;;;;;;26.73;20.98;;;21.80;99.90;;;;;;5071002;28;20416;-71
2023/08/19 00:21:13;;;;;;;25.60;20.15;;;21.90;99.90;;;;;;5071303;28;20503;-71
2023/08/19 00:23:39;;;;;;;21.58;19.27;;;21.90;99.90;;;;;;5071395;28;20036;-72
2023/08/19 00:26:04;;;;;;;27.17;21.52;;;21.20;99.90;;;;;;5071272;28;20044;-71
2023/08/19 00:28:30;;;;;;;24.35;20.55;;;21.60;99.90;;;;;;5071283;28;20051;-71
2023/08/19 00:30:55;;;;;;;27.42;21.55;;;21.60;99.90;;;;;;5071447;28;20045;-71
2023/08/19 00:33:23;;;;;;;22.40;20.00;;;21.70;99.90;;;;;;5071357;28;20040;-71
2023/08/19 00:35:51;;;;;;;22.98;20.15;;;21.10;99.90;;;;;;5071159;28;20654;-71
2023/08/19 00:38:17;;;;;;;25.33;21.42;;;20.90;99.90;;;;;;5070639;28;20048;-71
2023/08/19 00:40:42;;;;;;;25.52;20.67;;;20.90;99.90;;;;;;5053034;28;20049;-71
2023/08/19 00:43:08;;;;;;;25.25;21.35;;;21.20;99.90;;;;;;5068813;28;20106;-71
2023/08/19 00:45:40;;;;;;;24.77;19.70;;;20.90;99.90;;;;;;5072018;28;20060;-71
2023/08/19 00:48:06;;;;;;;24.75;20.83;;;21.80;99.90;;;;;;5074553;28;20040;-71
2023/08/19 00:50:32;;;;;;;26.25;19.52;;;21.10;99.90;;;;;;5074910;28;20040;-71
2023/08/19 00:52:58;;;;;;;23.98;21.15;;;21.00;99.90;;;;;;5056921;28;20059;-71
2023/08/19 00:55:23;;;;;;;25.83;20.58;;;20.90;99.90;;;;;;5074685;28;20115;-71
2023/08/19 00:57:50;;;;;;;25.08;20.77;;;20.90;99.90;;;;;;5074573;28;20048;-71
2023/08/19 01:00:16;;;;;;;25.08;19.27;;;21.80;99.90;;;;;;5074802;28;20044;-71
2023/08/19 01:02:42;;;;;;;25.88;22.05;;;20.80;99.90;;;;;;5057023;28;20392;-71
2023/08/19 01:05:08;;;;;;;23.95;21.45;;;21.70;99.90;;;;;;5074633;28;20052;-71
2023/08/19 01:07:53;;;;;;;24.80;21.65;;;21.10;99.90;;;;;;5074104;28;20108;-71
2023/08/19 01:11:00;;;;;;;27.05;21.00;;;20.80;99.90;;;;;;5056599;28;20083;-71
2023/08/19 01:13:34;;;;;;;24.67;21.70;;;21.20;99.90;;;;;;5018009;28;20421;-71
2023/08/19 01:16:17;;;;;;;26.88;21.70;;;21.10;99.90;;;;;;5070485;28;20111;-71
2023/08/19 01:18:43;;;;;;;25.38;21.15;;;21.50;99.90;;;;;;5074272;28;20050;-72
2023/08/19 01:21:10;;;;;;;26.45;20.90;;;20.80;99.90;;;;;;5074385;28;20047;-72
2023/08/19 01:23:43;;;;;;;26.67;22.15;;;21.40;99.90;;;;;;5074398;28;20047;-71
2023/08/19 01:26:09;;;;;;;;;;;21.20;99.90;;;;;;5074721;28;20037;-71
2023/08/19 01:28:34;;;;;;;26.35;22.40;;;21.10;99.90;;;;;;5056116;28;20007;-72
2023/08/19 01:31:00;;;;;;;27.25;23.38;;;21.10;99.90;;;;;;5074337;28;20053;-71
2023/08/19 01:33:26;;;;;;;32.58;25.05;;;20.80;99.90;;;;;;5074166;28;20502;-72
2023/08/19 01:36:34;;;;;;;28.98;24.98;;;21.60;99.90;;;;;;5074134;28;20072;-72
2023/08/19 01:39:07;;;;;;;26.35;22.83;;;21.30;99.90;;;;;;5056247;28;20507;-71
2023/08/19 01:41:34;;;;;;;27.40;23.60;;;20.70;99.90;;;;;;5074149;28;20044;-72
2023/08/19 01:44:01;;;;;;;27.50;22.83;;;21.60;99.90;;;;;;5074052;28;20036;-72
2023/08/19 01:46:27;;;;;;;28.17;23.55;;;20.70;99.90;;;;;;5055742;28;20077;-72
2023/08/19 01:48:53;;;;;;;28.25;23.15;;;21.50;99.90;;;;;;5055825;28;20519;-72
2023/08/19 01:51:18;;;;;;;30.58;22.98;;;21.10;99.90;;;;;;5073795;28;20036;-72
2023/08/19 01:53:44;;;;;;;27.50;22.45;;;21.30;99.90;;;;;;5055974;28;20149;-71
2023/08/19 01:56:11;;;;;;;30.73;24.55;;;21.60;99.90;;;;;;5073600;28;20037;-72
2023/08/19 01:58:37;;;;;;;32.00;23.80;;;21.60;99.90;;;;;;5073450;28;20091;-72
2023/08/19 02:01:03;;;;;;;27.60;22.85;;;21.10;99.90;;;;;;5073575;28;20488;-71
2023/08/19 02:03:28;;;;;;;28.08;22.98;;;21.00;99.90;;;;;;5073636;28;20040;-71
2023/08/19 02:05:54;;;;;;;31.55;24.75;;;21.40;99.90;;;;;;5073469;28;20119;-72
2023/08/19 02:08:19;;;;;;;27.70;23.10;;;20.70;99.90;;;;;;5073374;28;20062;-72
2023/08/19 02:10:45;;;;;;;29.35;23.73;;;20.60;99.90;;;;;;5073343;28;20082;-72
2023/08/19 02:13:10;;;;;;;29.23;23.45;;;20.90;99.90;;;;;;5073465;28;20090;-72
2023/08/19 02:15:36;;;;;;;27.38;24.23;;;21.50;99.90;;;;;;5073383;28;20044;-72
2023/08/19 02:18:02;;;;;;;27.45;23.20;;;21.00;99.90;;;;;;5072909;28;20662;-72
2023/08/19 02:20:28;;;;;;;28.38;22.95;;;21.40;99.90;;;;;;5073136;28;20119;-72
2023/08/19 02:22:54;;;;;;;29.48;23.67;;;20.50;99.90;;;;;;5073120;28;20076;-72
2023/08/19 02:25:20;;;;;;;28.83;23.90;;;21.20;99.90;;;;;;5073135;28;20051;-72
2023/08/19 02:27:45;;;;;;;28.00;24.30;;;20.40;99.90;;;;;;5072844;28;20029;-71
2023/08/19 02:30:11;;;;;;;28.70;23.58;;;20.40;99.90;;;;;;5073054;28;20549;-71
2023/08/19 02:32:39;;;;;;;29.73;22.33;;;20.80;99.90;;;;;;5072976;28;20086;-71
2023/08/19 02:35:05;;;;;;;28.58;23.50;;;21.30;99.90;;;;;;5071880;28;20411;-71
2023/08/19 02:37:31;;;;;;;31.30;23.95;;;21.30;99.90;;;;;;5072651;28;20033;-72
2023/08/19 02:39:56;;;;;;;31.10;25.60;;;20.90;99.90;;;;;;5072493;28;20116;-71
2023/08/19 02:42:22;;;;;;;31.67;24.60;;;21.00;99.90;;;;;;5055135;28;20037;-72
2023/08/19 02:44:48;;;;;;;30.95;24.52;;;21.20;99.90;;;;;;5072751;28;20072;-72
2023/08/19 02:47:14;;;;;;;30.92;24.30;;;21.20;99.90;;;;;;5072543;28;20044;-72
2023/08/19 02:49:39;;;;;;;30.92;24.38;;;20.80;99.90;;;;;;5072397;28;20058;-71
2023/08/19 02:52:05;;;;;;;34.58;26.42;;;20.40;99.90;;;;;;5072480;28;20044;-72
2023/08/19 02:54:31;;;;;;;34.38;27.58;;;21.00;99.90;;;;;;5072679;28;20442;-72
2023/08/19 02:56:56;;;;;;;34.28;27.75;;;21.00;99.90;;;;;;5054394;28;20070;-71
2023/08/19 02:59:22;;;;;;;31.83;27.30;;;20.80;99.90;;;;;;5054358;28;20067;-71
2023/08/19 03:01:47;;;;;;;34.97;28.80;;;21.20;99.90;;;;;;5072312;28;20041;-72
2023/08/19 03:04:14;;;;;;;31.90;26.42;;;20.40;99.90;;;;;;5054446;28;20090;-71
2023/08/19 03:06:41;;;;;;;33.30;27.92;;;21.20;99.90;;;;;;5071663;28;20412;-72
2023/08/19 03:09:07;;;;;;;34.88;28.35;;;20.50;99.90;;;;;;5071124;28;20454;-72
2023/08/19 03:11:33;;;;;;;41.13;30.02;;;20.50;99.90;;;;;;5072376;28;20101;-72
2023/08/19 03:13:59;;;;;;;38.88;30.85;;;21.00;99.90;;;;;;5072274;28;20112;-71
2023/08/19 03:16:24;;;;;;;36.58;31.25;;;21.10;99.90;;;;;;5054161;28;20056;-72
2023/08/19 03:18:50;;;;;;;42.03;30.60;;;20.80;99.90;;;;;;5071822;28;20048;-72
2023/08/19 03:21:16;;;;;;;40.58;30.95;;;20.60;99.90;;;;;;5054385;28;20441;-72
2023/08/19 03:23:41;;;;;;;38.83;28.67;;;20.50;99.90;;;;;;5072457;28;20033;-72
2023/08/19 03:26:07;;;;;;;35.38;28.15;;;20.80;99.90;;;;;;5072237;28;20036;-72
2023/08/19 03:28:32;;;;;;;35.13;29.13;;;20.70;99.90;;;;;;5071777;28;20495;-72
2023/08/19 03:30:58;;;;;;;36.95;27.98;;;20.50;99.90;;;;;;5072076;28;20499;-72
2023/08/19 03:33:23;;;;;;;35.85;26.58;;;21.10;99.90;;;;;;5072016;28;20067;-72
2023/08/19 03:35:49;;;;;;;34.20;26.75;;;21.00;99.90;;;;;;5071900;28;20040;-72
2023/08/19 03:38:15;;;;;;;32.83;26.33;;;20.90;99.90;;;;;;5071545;28;20044;-72
2023/08/19 03:40:41;;;;;;;30.35;24.08;;;20.80;99.90;;;;;;5071959;28;20070;-72
2023/08/19 03:43:09;;;;;;;29.50;25.40;;;20.30;99.90;;;;;;5071744;28;20036;-72
2023/08/19 03:45:35;;;;;;;31.70;25.98;;;20.60;99.90;;;;;;5071664;28;20549;-72
2023/08/19 03:48:00;;;;;;;30.67;26.05;;;20.40;99.90;;;;;;5071300;28;20040;-71
2023/08/19 03:50:26;;;;;;;32.05;25.48;;;20.40;99.90;;;;;;5071660;28;20494;-71
2023/08/19 03:52:51;;;;;;;33.53;25.42;;;20.40;99.90;;;;;;5071817;28;20054;-72
2023/08/19 03:55:17;;;;;;;34.50;24.77;;;20.80;99.90;;;;;;5071808;28;20041;-72
2023/08/19 03:57:43;;;;;;;27.48;23.40;;;20.90;99.90;;;;;;5053228;28;20491;-71
2023/08/19 04:00:10;;;;;;;27.52;23.15;;;20.90;99.90;;;;;;5071577;28;20072;-72
2023/08/19 04:02:35;;;;;;;31.08;22.73;;;21.00;99.90;;;;;;5053460;28;20480;-72
2023/08/19 04:05:03;;;;;;;31.15;23.92;;;20.70;99.90;;;;;;5071507;28;20079;-71
2023/08/19 04:07:29;;;;;;;27.70;23.00;;;20.20;99.90;;;;;;5071488;28;20082;-72
2023/08/19 04:09:55;;;;;;;31.50;23.15;;;20.90;99.90;;;;;;5071470;28;20040;-72
2023/08/19 04:12:25;;;;;;;27.52;21.65;;;20.10;99.90;;;;;;5071228;28;20511;-72
2023/08/19 04:14:50;;;;;;;24.17;20.98;;;20.10;99.90;;;;;;5071410;28;20086;-72
2023/08/19 04:17:16;;;;;;;26.48;21.80;;;20.50;99.90;;;;;;5071257;28;20037;-72
2023/08/19 04:19:43;;;;;;;26.20;22.00;;;20.80;99.90;;;;;;5074638;28;20037;-71
2023/08/19 04:22:13;;;;;;;28.52;21.90;;;20.70;99.90;;;;;;5075348;28;20492;-72
2023/08/19 04:24:39;;;;;;;28.17;20.58;;;20.30;99.90;;;;;;5075569;28;20108;-72
2023/08/19 04:27:05;;;;;;;26.92;21.17;;;21.00;99.90;;;;;;5075131;28;20137;-72
2023/08/19 04:29:32;;;;;;;23.90;19.65;;;20.30;99.90;;;;;;5057192;28;20045;-71
2023/08/19 04:32:02;;;;;;;23.60;19.73;;;20.80;99.90;;;;;;5075214;28;20090;-72
2023/08/19 04:34:28;;;;;;;23.70;19.33;;;21.00;99.90;;;;;;5074331;28;20439;-71
2023/08/19 04:36:54;;;;;;;23.70;19.67;;;20.70;99.90;;;;;;5056859;28;20045;-72
2023/08/19 04:39:20;;;;;;;22.98;19.48;;;21.00;99.90;;;;;;5048952;28;20037;-71
2023/08/19 04:41:46;;;;;;;25.38;19.05;;;20.80;99.90;;;;;;5097740;22;20158;-76
2023/08/19 04:44:12;;;;;;;19.90;17.48;;;20.40;99.90;;;;;;5082909;28;20499;-76
2023/08/19 04:46:37;;;;;;;26.23;18.08;;;20.90;99.90;;;;;;5085405;28;20042;-76
2023/08/19 04:49:03;;;;;;;22.52;18.13;;;20.50;99.90;;;;;;5089525;28;20086;-76
2023/08/19 04:51:29;;;;;;;22.80;19.25;;;20.90;99.90;;;;;;5074420;28;20043;-76
2023/08/19 04:53:54;;;;;;;27.00;19.58;;;21.00;99.90;;;;;;5073809;28;20457;-76
2023/08/19 04:56:20;;;;;;;22.90;18.52;;;20.60;99.90;;;;;;5073595;28;20102;-76
2023/08/19 04:58:48;;;;;;;22.38;17.75;;;21.10;99.90;;;;;;5073460;28;20041;-76
2023/08/19 05:01:14;;;;;;;22.40;17.33;;;21.20;99.90;;;;;;5073363;28;20556;-76
2023/08/19 05:03:40;;;;;;;19.85;17.27;;;21.30;99.90;;;;;;5073629;28;20123;-76
2023/08/19 05:06:05;;;;;;;21.05;17.77;;;20.40;99.90;;;;;;5073645;28;20063;-76
2023/08/19 05:08:31;;;;;;;19.45;17.38;;;21.20;99.90;;;;;;5073270;28;20036;-76
2023/08/19 05:10:56;;;;;;;21.45;17.45;;;21.10;99.90;;;;;;5073307;28;20537;-76
2023/08/19 05:13:22;;;;;;;21.33;17.23;;;21.50;99.90;;;;;;5073284;28;20040;-76
2023/08/19 05:15:48;;;;;;;22.85;16.58;;;21.50;99.90;;;;;;5073183;28;20054;-76
2023/08/19 05:18:13;;;;;;;19.48;16.00;;;21.40;99.90;;;;;;5074315;28;20511;-76
2023/08/19 05:20:39;;;;;;;21.23;17.60;;;21.20;99.90;;;;;;5074344;28;20047;-76
2023/08/19 05:23:04;;;;;;;20.42;16.88;;;21.40;99.90;;;;;;5073055;28;20048;-76
2023/08/19 05:25:30;;;;;;;19.00;16.33;;;21.70;99.90;;;;;;5074297;28;20043;-76
2023/08/19 05:27:57;;;;;;;18.92;15.50;;;21.50;99.90;;;;;;5072712;28;20043;-76
2023/08/19 05:30:23;;;;;;;17.92;15.73;;;21.40;99.90;;;;;;5072686;28;20060;-76
2023/08/19 05:32:48;;;;;;;19.52;15.95;;;21.80;99.90;;;;;;5072823;28;20041;-76
2023/08/19 05:35:14;;;;;;;18.35;16.25;;;21.70;99.90;;;;;;5074194;28;20502;-76
2023/08/19 05:37:40;;;;;;;17.92;16.00;;;21.80;99.90;;;;;;5071212;28;20036;-76
2023/08/19 05:40:06;;;;;;;19.10;15.27;;;21.60;99.90;;;;;;5061944;28;20378;-76
2023/08/19 05:42:32;;;;;;;19.48;15.40;;;21.60;99.90;;;;;;5072775;28;20048;-76
2023/08/19 05:44:57;;;;;;;19.40;14.90;;;21.80;99.90;;;;;;5072892;28;20048;-76
2023/08/19 05:47:23;;;;;;;19.95;15.35;;;22.10;99.90;;;;;;5072788;28;20116;-76
2023/08/19 05:49:48;;;;;;;16.08;14.38;;;21.70;99.90;;;;;;5072677;28;20484;-76
2023/08/19 05:52:14;;;;;;;17.85;14.80;;;22.10;99.90;;;;;;5072650;28;20496;-76
2023/08/19 05:54:40;;;;;;;18.77;15.05;;;21.40;99.90;;;;;;5072690;28;20036;-77
2023/08/19 05:57:06;;;;;;;18.55;14.20;;;21.30;99.90;;;;;;5072408;28;20040;-76
2023/08/19 05:59:32;;;;;;;17.25;14.55;;;21.20;99.90;;;;;;5073424;28;20499;-76
2023/08/19 06:01:58;;;;;;;19.17;15.73;;;21.50;99.90;;;;;;5073583;28;20040;-76
2023/08/19 06:04:24;;;;;;;18.88;14.52;;;22.10;99.90;;;;;;5073877;28;20557;-76
2023/08/19 06:06:49;;;;;;;21.02;15.50;;;21.20;99.90;;;;;;5072257;28;20565;-76
2023/08/19 06:09:15;;;;;;;19.73;15.93;;;21.80;99.90;;;;;;5055913;28;20187;-79
2023/08/19 06:11:48;;;;;;;19.38;15.40;;;21.80;99.90;;;;;;5072128;28;20097;-76
2023/08/19 06:14:14;;;;;;;19.20;15.90;;;21.30;99.90;;;;;;5072508;28;20105;-76
2023/08/19 06:16:41;;;;;;;17.25;15.13;;;21.30;99.90;;;;;;5072374;28;20048;-76
2023/08/19 06:19:06;;;;;;;17.20;14.95;;;21.30;99.90;;;;;;5072147;28;20063;-75
2023/08/19 06:21:32;;;;;;;17.88;14.15;;;21.40;99.90;;;;;;5072331;28;20051;-78
2023/08/19 06:23:57;;;;;;;18.45;15.48;;;22.00;99.90;;;;;;5072420;28;20041;-77
2023/08/19 06:26:23;;;;;;;17.20;14.38;;;22.10;99.90;;;;;;5072096;28;20499;-77
2023/08/19 06:28:49;;;;;;;19.23;15.35;;;21.90;99.90;;;;;;5071616;28;20500;-77
2023/08/19 06:31:15;;;;;;;16.98;14.15;;;22.10;99.90;;;;;;5071993;28;20407;-77
2023/08/19 06:33:41;;;;;;;18.38;15.55;;;21.60;99.90;;;;;;5071665;28;20127;-77
2023/08/19 06:36:09;;;;;;;17.60;14.88;;;22.20;99.90;;;;;;5072778;28;20124;-77
2023/08/19 06:38:39;;;;;;;18.02;15.93;;;21.50;99.90;;;;;;5071321;28;20445;-77
2023/08/19 06:41:11;;;;;;;18.00;15.50;;;22.30;99.90;;;;;;5071608;28;20504;-77
2023/08/19 06:43:38;;;;;;;20.60;15.45;;;21.70;99.90;;;;;;5072861;28;20052;-76
2023/08/19 06:46:05;;;;;;;18.38;14.15;;;22.40;99.90;;;;;;5071636;28;20048;-77
2023/08/19 06:48:32;;;;;;;17.92;14.55;;;22.00;99.90;;;;;;5071150;28;20050;-77
2023/08/19 06:50:58;;;;;;;20.35;15.85;;;21.90;99.90;;;;;;5072597;28;20032;-76
2023/08/19 06:53:24;;;;;;;19.35;15.02;;;22.30;99.90;;;;;;5071183;28;20045;-77
2023/08/19 06:56:23;;;;;;;18.35;14.48;;;22.40;99.90;;;;;;5072495;28;20047;-77
2023/08/19 06:58:54;;;;;;;18.30;14.43;;;21.70;99.90;;;;;;5054390;28;20043;-76
2023/08/19 07:01:25;;;;;;;17.83;13.73;;;22.40;99.90;;;;;;5071119;28;20074;-76
2023/08/19 07:03:52;;;;;;;18.17;13.50;;;22.50;99.90;;;;;;5071076;28;20037;-77
2023/08/19 07:06:20;;;;;;;17.00;14.40;;;22.20;99.90;;;;;;5070945;28;20040;-77
2023/08/19 07:08:46;;;;;;;18.10;14.75;;;22.40;99.90;;;;;;5071029;28;20032;-76
2023/08/19 07:11:14;;;;;;;18.40;14.35;;;22.30;99.90;;;;;;5070909;28;20082;-77
2023/08/19 07:13:40;;;;;;;17.90;14.23;;;21.90;99.90;;;;;;5070962;28;20040;-76
2023/08/19 07:16:09;;;;;;;15.48;13.48;;;21.70;99.90;;;;;;5070936;28;20052;-77
2023/08/19 07:18:38;;;;;;;16.65;13.35;;;22.10;99.90;;;;;;5070933;28;20446;-77
2023/08/19 07:21:07;;;;;;;17.83;13.63;;;22.30;99.90;;;;;;5054012;28;20036;-77
2023/08/19 07:23:33;;;;;;;16.83;13.27;;;22.40;99.90;;;;;;5070628;28;20080;-77
2023/08/19 07:25:59;;;;;;;15.00;11.68;;;21.80;99.90;;;;;;5070676;28;20046;-76
2023/08/19 07:28:25;;;;;;;14.18;11.68;;;22.30;99.90;;;;;;5070290;28;20400;-76
2023/08/19 07:30:51;;;;;;;16.05;11.95;;;22.20;99.90;;;;;;5070597;28;20040;-76
2023/08/19 07:33:17;;;;;;;14.85;12.73;;;22.10;99.90;;;;;;5058434;28;20045;-76
2023/08/19 07:35:44;;;;;;;16.45;11.52;;;22.40;99.90;;;;;;5033581;28;20071;-76
2023/08/19 07:38:10;;;;;;;13.35;11.52;;;22.20;99.90;;;;;;5045911;28;20045;-76
2023/08/19 07:40:35;;;;;;;14.52;12.05;;;22.70;99.90;;;;;;5030262;28;20607;-76
2023/08/19 07:43:01;;;;;;;13.95;11.55;;;22.40;99.90;;;;;;5036925;28;20032;-77
2023/08/19 07:45:26;;;;;;;15.02;12.13;;;22.10;99.90;;;;;;5057746;28;20043;-77
2023/08/19 07:47:52;;;;;;;12.60;11.00;;;22.30;99.90;;;;;;5055048;28;20043;-77
2023/08/19 07:50:17;;;;;;;14.80;11.73;;;22.30;99.90;;;;;;5065984;28;20037;-76
2023/08/19 07:52:43;;;;;;;14.43;11.23;;;23.10;99.90;;;;;;5063192;28;20032;-77
2023/08/19 07:55:10;;;;;;;13.82;10.30;;;22.50;99.90;;;;;;5070460;28;20047;-76
2023/08/19 07:57:36;;;;;;;13.07;10.25;;;23.00;99.90;;;;;;5063472;28;20625;-76
2023/08/19 08:00:02;;;;;;;13.07;11.45;;;23.00;99.90;;;;;;5057902;28;20093;-76
2023/08/19 08:02:27;;;;;;;15.50;12.05;;;23.00;99.90;;;;;;5053123;28;20047;-76
2023/08/19 08:04:53;;;;;;;14.63;11.23;;;22.60;99.90;;;;;;5055770;28;20120;-77
2023/08/19 08:07:19;;;;;;;14.15;11.23;;;22.90;99.90;;;;;;5042646;28;20048;-76
2023/08/19 08:09:45;;;;;;;15.57;11.60;;;22.70;99.90;;;;;;5052725;28;20045;-76
2023/08/19 08:12:11;;;;;;;13.18;11.13;;;23.40;99.90;;;;;;5051524;28;20044;-76
2023/08/19 08:14:37;;;;;;;13.30;11.43;;;23.50;99.90;;;;;;5061750;28;20044;-77
2023/08/19 08:17:02;;;;;;;14.65;11.40;;;22.90;99.90;;;;;;5056958;28;20048;-76
2023/08/19 08:19:31;;;;;;;14.27;11.18;;;23.40;99.90;;;;;;5041725;28;20040;-76
2023/08/19 08:21:56;;;;;;;14.60;11.38;;;23.00;99.90;;;;;;5046318;28;20508;-76
2023/08/19 08:24:23;;;;;;;13.50;10.05;;;22.90;99.90;;;;;;5049194;28;20045;-76
2023/08/19 08:26:48;;;;;;;12.65;10.85;;;23.30;99.90;;;;;;5045535;28;20033;-76
2023/08/19 08:29:14;;;;;;;17.67;12.70;;;22.90;99.90;;;;;;5048900;28;20410;-76
2023/08/19 08:31:40;;;;;;;13.73;10.30;;;23.00;99.90;;;;;;5028648;28;20029;-76
2023/08/19 08:34:06;;;;;;;11.80;10.52;;;23.10;99.90;;;;;;5050565;28;20543;-76
2023/08/19 08:36:32;;;;;;;11.40;10.02;;;23.60;99.90;;;;;;5060303;28;20041;-77
2023/08/19 08:38:58;;;;;;;11.50;9.85;;;23.80;99.90;;;;;;5055592;28;20051;-77
2023/08/19 08:41:25;;;;;;;12.07;9.43;;;23.40;99.90;;;;;;5039926;28;20507;-76
2023/08/19 08:43:54;;;;;;;12.65;9.57;;;23.40;99.90;;;;;;5055394;28;20120;-76
2023/08/19 08:46:22;;;;;;;13.38;9.38;;;23.90;99.90;;;;;;5045651;28;20106;-76
2023/08/19 08:48:49;;;;;;;14.32;9.48;;;23.90;99.90;;;;;;5053407;28;20493;-76
2023/08/19 08:51:18;;;;;;;13.80;9.93;;;23.70;99.90;;;;;;5038552;28;20045;-76
2023/08/19 08:53:45;;;;;;;10.82;9.52;;;23.50;99.90;;;;;;5044698;28;20123;-76
2023/08/19 08:56:11;;;;;;;10.02;9.02;;;23.60;99.90;;;;;;5046177;28;20040;-76
2023/08/19 08:58:37;;;;;;;10.77;8.50;;;23.60;99.90;;;;;;5037266;28;20416;-76
2023/08/19 09:01:03;;;;;;;11.88;7.78;;;24.00;99.90;;;;;;5044802;28;20038;-76
2023/08/19 09:03:32;;;;;;;10.73;8.20;;;24.40;99.90;;;;;;5049641;28;20484;-76
2023/08/19 09:06:07;;;;;;;11.15;8.48;;;24.00;99.90;;;;;;5067678;28;20041;-76
2023/08/19 09:08:42;;;;;;;12.52;8.40;;;24.30;99.90;;;;;;5059160;28;20477;-77
2023/08/19 09:11:11;;;;;;;9.55;7.95;;;24.60;99.90;;;;;;5054220;28;20083;-76
2023/08/19 09:13:39;;;;;;;10.90;8.05;;;25.00;99.90;;;;;;5060165;28;20548;-76
2023/08/19 09:16:10;;;;;;;14.63;7.72;;;24.70;99.90;;;;;;5059964;28;20094;-76
2023/08/19 09:18:36;;;;;;;11.23;7.75;;;25.20;99.90;;;;;;5064470;28;20531;-76
2023/08/19 09:21:02;;;;;;;8.40;7.43;;;25.50;99.90;;;;;;5050487;28;20449;-76
2023/08/19 09:23:30;;;;;;;10.27;7.32;;;25.50;99.90;;;;;;5065246;28;20063;-77
2023/08/19 09:26:00;;;;;;;9.98;7.20;;;25.70;99.90;;;;;;5050846;28;20044;-77
2023/08/19 09:28:26;;;;;;;12.85;7.10;;;25.70;99.90;;;;;;5066117;28;20045;-74
2023/08/19 09:30:52;;;;;;;7.10;5.97;;;25.80;99.90;;;;;;5060141;28;20381;-73
2023/08/19 09:33:20;;;;;;;9.25;6.40;;;26.30;99.90;;;;;;5055931;28;20389;-74
2023/08/19 09:35:54;;;;;;;9.27;6.10;;;26.00;99.90;;;;;;5064010;28;20110;-74
2023/08/19 09:38:22;;;;;;;13.15;5.78;;;26.10;99.90;;;;;;5057721;28;20056;-74
2023/08/19 09:41:03;;;;;;;7.88;5.88;;;26.10;99.90;;;;;;5060255;28;20037;-74
2023/08/19 09:43:29;;;;;;;7.25;5.95;;;26.20;99.90;;;;;;5059072;28;20032;-73
2023/08/19 09:45:58;;;;;;;10.15;6.90;;;26.10;99.90;;;;;;5060746;28;20098;-74
2023/08/19 09:48:24;;;;;;;10.40;5.82;;;25.80;99.90;;;;;;5065153;28;20579;-74
2023/08/19 09:50:49;;;;;;;8.55;6.70;;;25.90;99.90;;;;;;5062676;28;20454;-74
2023/08/19 09:53:16;;;;;;;7.57;5.63;;;25.80;99.90;;;;;;5066083;28;20048;-74
2023/08/19 09:55:46;;;;;;;7.43;5.43;;;26.10;99.90;;;;;;5060823;28;20546;-73
2023/08/19 09:58:12;;;;;;;7.50;6.32;;;26.00;99.90;;;;;;5062898;28;20044;-74
2023/08/19 10:00:38;;;;;;;7.75;5.80;;;25.80;99.90;;;;;;5051673;28;20120;-74
2023/08/19 10:03:05;;;;;;;6.97;5.85;;;25.80;99.90;;;;;;5063932;28;20032;-74
2023/08/19 10:05:37;;;;;;;7.75;6.03;;;26.10;99.90;;;;;;5051644;28;20029;-74
2023/08/19 10:08:08;;;;;;;8.93;6.70;;;26.00;99.90;;;;;;5045697;28;20041;-74
2023/08/19 10:10:37;;;;;;;11.07;6.63;;;26.20;99.90;;;;;;5051833;28;20432;-77
2023/08/19 10:13:03;;;;;;;7.30;5.95;;;26.10;99.90;;;;;;5051754;28;20052;-77
2023/08/19 10:15:32;;;;;;;8.00;5.32;;;26.30;99.90;;;;;;5069636;28;20044;-77
2023/08/19 10:18:03;;;;;;;7.65;5.82;;;26.40;99.90;;;;;;5056103;28;20041;-77
2023/08/19 10:20:31;;;;;;;8.00;5.43;;;26.70;99.90;;;;;;5072062;28;20478;-76
2023/08/19 10:23:00;;;;;;;9.20;5.65;;;26.80;99.90;;;;;;5072073;28;20074;-76
2023/08/19 10:25:26;;;;;;;9.60;6.20;;;26.70;99.90;;;;;;5071988;28;20040;-76
2023/08/19 10:27:53;;;;;;;8.10;5.63;;;26.80;99.90;;;;;;5053178;28;20498;-76
2023/08/19 10:30:24;;;;;;;9.93;5.45;;;26.60;99.90;;;;;;5034162;28;20467;-76
2023/08/19 10:32:50;;;;;;;8.27;5.53;;;26.60;99.90;;;;;;5049390;28;20036;-75
2023/08/19 10:35:17;;;;;;;10.02;6.28;;;26.60;99.90;;;;;;5048369;28;20115;-76
2023/08/19 10:37:49;;;;;;;14.45;7.00;;;26.10;99.90;;;;;;5059957;28;20059;-76
2023/08/19 10:40:21;;;;;;;9.20;6.00;;;26.20;99.90;;;;;;5059911;28;20040;-76
2023/08/19 10:43:00;;;;;;;11.18;7.07;;;26.10;99.90;;;;;;5070268;22;20052;-75
2023/08/19 10:45:33;;;;;;;11.23;6.63;;;25.80;99.90;;;;;;5052968;28;20491;-75
2023/08/19 10:47:59;;;;;;;11.38;6.65;;;25.70;99.90;;;;;;5067521;28;20462;-74
2023/08/19 10:50:25;;;;;;;7.35;6.55;;;25.80;99.90;;;;;;5072753;28;20119;-74
2023/08/19 10:53:03;;;;;;;11.07;7.05;;;25.50;99.90;;;;;;5064279;28;20524;-74
2023/08/19 10:55:52;;;;;;;11.07;7.70;;;25.20;99.90;;;;;;5064596;28;20045;-75
2023/08/19 10:58:18;;;;;;;12.82;8.65;;;25.10;99.90;;;;;;5069495;28;20037;-75
2023/08/19 11:00:45;;;;;;;10.52;7.93;;;25.20;99.90;;;;;;5057158;28;20029;-75
2023/08/19 11:03:12;;;;;;;8.95;7.25;;;25.30;99.90;;;;;;5063612;28;20076;-76
2023/08/19 11:05:46;;;;;;;9.90;8.30;;;25.20;99.90;;;;;;5063416;28;20087;-75
2023/08/19 11:08:12;;;;;;;10.80;8.63;;;24.90;99.90;;;;;;5061455;28;20051;-75
2023/08/19 11:10:38;;;;;;;14.02;8.70;;;25.40;99.90;;;;;;5058500;28;20408;-75
2023/08/19 11:13:04;;;;;;;12.10;9.10;;;24.70;99.90;;;;;;5058037;28;20102;-75
2023/08/19 11:15:30;;;;;;;11.82;8.90;;;24.70;99.90;;;;;;5056488;28;20488;-75
2023/08/19 11:17:55;;;;;;;11.10;8.70;;;24.70;99.90;;;;;;5060440;28;20032;-75
2023/08/19 11:20:28;;;;;;;10.95;7.88;;;25.30;99.90;;;;;;5054909;28;20123;-75
2023/08/19 11:22:54;;;;;;;;;;;24.80;99.90;;;;;;5064356;28;20044;-75
2023/08/19 11:25:20;;;;;;;13.35;9.05;;;24.70;99.90;;;;;;5067384;28;19955;-77
2023/08/19 11:27:46;;;;;;;11.35;8.13;;;24.90;99.90;;;;;;5062589;28;20432;-76
2023/08/19 11:30:14;;;;;;;9.68;8.60;;;24.50;99.90;;;;;;5066599;28;20047;-76
2023/08/19 11:32:47;;;;;;;12.00;9.20;;;24.90;99.90;;;;;;5053517;28;20029;-77
2023/08/19 11:35:12;;;;;;;11.18;8.45;;;24.60;99.90;;;;;;5060826;28;20081;-76
2023/08/19 11:37:40;;;;;;;11.55;8.88;;;25.10;99.90;;;;;;5061288;28;20033;-77
2023/08/19 11:40:06;;;;;;;13.30;8.45;;;24.90;99.90;;;;;;5073983;28;20039;-76
2023/08/19 11:42:32;;;;;;;13.35;8.93;;;25.30;99.90;;;;;;5066103;28;20037;-76
2023/08/19 11:44:57;;;;;;;10.77;9.10;;;26.00;99.90;;;;;;5068381;28;20059;-76
2023/08/19 11:47:24;;;;;;;10.68;8.60;;;26.20;99.90;;;;;;5065684;28;20032;-76
2023/08/19 11:49:50;;;;;;;11.07;9.13;;;26.20;99.90;;;;;;5063250;28;20036;-76
2023/08/19 11:52:22;;;;;;;12.23;9.13;;;25.90;99.90;;;;;;5067200;28;20051;-76
2023/08/19 11:55:01;;;;;;;13.00;9.20;;;25.60;99.90;;;;;;5058792;28;20077;-76
2023/08/19 11:57:35;;;;;;;13.55;9.10;;;25.70;99.90;;;;;;5063242;28;20044;-76
2023/08/19 12:00:01;;;;;;;12.82;10.10;;;25.70;99.90;;;;;;5068845;28;20037;-76
2023/08/19 12:02:26;;;;;;;13.13;10.38;;;26.30;99.90;;;;;;5065589;28;20043;-76
2023/08/19 12:04:53;;;;;;;16.13;11.27;;;25.90;99.90;;;;;;5054242;28;20124;-76
2023/08/19 12:07:25;;;;;;;13.98;11.27;;;26.10;99.90;;;;;;5044731;28;20037;-75
2023/08/19 12:09:50;;;;;;;14.43;10.93;;;25.60;99.90;;;;;;5049483;28;20041;-75
2023/08/19 12:12:16;;;;;;;13.80;11.48;;;25.50;99.90;;;;;;5067924;28;20049;-75
2023/08/19 12:14:42;;;;;;;16.30;12.18;;;25.50;99.90;;;;;;5071323;28;20037;-75
2023/08/19 12:17:08;;;;;;;18.50;12.98;;;26.20;99.90;;;;;;5064465;28;20048;-75
2023/08/19 12:19:34;;;;;;;19.40;14.05;;;26.10;99.90;;;;;;5066462;28;20040;-76
2023/08/19 12:22:00;;;;;;;20.33;13.93;;;25.60;99.90;;;;;;5057796;28;20032;-76
2023/08/19 12:24:25;;;;;;;18.33;13.82;;;25.70;99.90;;;;;;5069951;28;20052;-76
2023/08/19 12:26:51;;;;;;;17.67;15.75;;;26.30;99.90;;;;;;5068665;28;20447;-76
2023/08/19 12:29:17;;;;;;;20.05;15.70;;;26.10;99.90;;;;;;5064825;28;20051;-75
2023/08/19 12:31:42;;;;;;;20.10;15.55;;;25.60;99.90;;;;;;5069224;28;20032;-73